P/v Golden Gate — WDE5665 — position and weather

sailwx.info

Track history (hours):
 
Tides and Currents Weather Stations Pressure Air Temp Water Temp Dewpoint Dewpoint Depression Visibility Wind Speed Wind Dir Waves Ship Positions

P/v Golden Gate

More information available from US FCC via Universal Licensing System and Coast Guard Vessel Documentation Center.

Last reported at 2014-Jul-25 20:33 UTC. Time now 2014-Jul-25 20:47 UTC.
Position N 37°48' W 122°24'.

Length 23 m; draft 2 m.

Type: Pilot. MMSI: 367370010.

Date/timePositionNaut miles runAvg speedWind from/ knotsBaromVisibWave heightAir tempDewpointWater temp
2014-Jul-25 20:33N 37°48' W 122°24'0 0.0
2014-Jul-25 19:33N 37°48' W 122°24'0 0.0
2014-Jul-25 18:33N 37°48' W 122°24'0 0.0
2014-Jul-25 17:33N 37°48' W 122°24'7 7.4
2014-Jul-25 16:34N 37°48' W 122°33'1010.2
2014-Jul-25 15:34N 37°49' W 122°20'3 2.8
2014-Jul-25 14:33N 37°48' W 122°24'0 0.0
2014-Jul-25 13:33N 37°48' W 122°24'0 0.0
2014-Jul-25 12:33N 37°48' W 122°24'0 0.0
2014-Jul-25 11:34N 37°48' W 122°24'0 0.0
2014-Jul-25 10:33N 37°48' W 122°24'0 0.0
2014-Jul-25 09:33N 37°48' W 122°24'0 0.0
2014-Jul-25 08:33N 37°48' W 122°24'0 0.0
2014-Jul-25 07:33N 37°48' W 122°24'0 0.0
2014-Jul-25 06:33N 37°48' W 122°24'0 0.0
2014-Jul-25 05:33N 37°48' W 122°24'3 3.4
2014-Jul-25 04:34N 37°49' W 122°28'4 3.9
2014-Jul-25 03:33N 37°48' W 122°33'7 6.9
2014-Jul-25 02:33N 37°48' W 122°24'0 0.0
2014-Jul-25 01:34N 37°48' W 122°24'2 1.6
2014-Jul-25 00:33N 37°49' W 122°25'4 4.2
2014-Jul-24 23:33N 37°48' W 122°31'5 5.4
2014-Jul-24 22:34N 37°48' W 122°24'0 0.0
2014-Jul-24 21:34N 37°48' W 122°24'0 0.0
2014-Jul-24 20:33N 37°48' W 122°24'0 0.0
2014-Jul-24 19:34N 37°48' W 122°24'0 0.0
2014-Jul-24 18:33N 37°48' W 122°24'0 0.0
2014-Jul-24 17:34N 37°48' W 122°24'0 0.0
2014-Jul-24 16:33N 37°48' W 122°24'0 0.0
2014-Jul-24 15:33N 37°48' W 122°24'0 0.0
2014-Jul-24 14:34N 37°48' W 122°24'1 1.2
2014-Jul-24 13:32N 37°49' W 122°25'1 1.3
2014-Jul-24 12:34N 37°48' W 122°24'2 1.7
2014-Jul-24 11:33N 37°49' W 122°25'7 7.0
2014-Jul-24 10:33N 37°47' W 122°34'8 8.2
2014-Jul-24 09:33N 37°48' W 122°24'0 0.0
2014-Jul-24 08:33N 37°48' W 122°24'0 0.0
2014-Jul-24 07:33N 37°48' W 122°24'0 0.0
2014-Jul-24 06:33N 37°48' W 122°24'3 3.3
2014-Jul-24 05:33N 37°45' W 122°21'3 3.3
2014-Jul-24 04:33N 37°48' W 122°24'0 0.0
2014-Jul-24 03:33N 37°48' W 122°24'0 0.0
2014-Jul-24 02:33N 37°48' W 122°24'4 3.9
2014-Jul-24 01:34N 37°45' W 122°21'3 3.3
2014-Jul-24 00:33N 37°48' W 122°19'3 3.5
2014-Jul-23 23:33N 37°48' W 122°24'4 3.9
2014-Jul-23 22:33N 37°49' W 122°19'4 3.8
2014-Jul-23 21:33N 37°48' W 122°24'2 1.6
2014-Jul-23 20:33N 37°48' W 122°22'2 1.6
2014-Jul-23 19:33N 37°48' W 122°24'5 4.7
2014-Jul-23 18:33N 37°44' W 122°20'5 4.7
2014-Jul-23 17:33N 37°48' W 122°24'0 0.0
2014-Jul-23 16:33N 37°48' W 122°24'2 1.9
2014-Jul-23 15:33N 37°47' W 122°22'2 1.9
2014-Jul-23 14:33N 37°48' W 122°24'0 0.0
2014-Jul-23 13:33N 37°48' W 122°24'3 2.6
2014-Jul-23 12:34N 37°47' W 122°21'3 2.6
2014-Jul-23 11:34N 37°48' W 122°24'0 0.0
2014-Jul-23 10:34N 37°48' W 122°24'0 0.0
2014-Jul-23 09:34N 37°48' W 122°24'0 0.0
2014-Jul-23 08:34N 37°48' W 122°24'0 0.0
2014-Jul-23 07:34N 37°48' W 122°24'0 0.0
2014-Jul-23 06:33N 37°48' W 122°24'1 1.1
2014-Jul-23 05:34N 37°49' W 122°25'2 1.7
2014-Jul-23 04:33N 37°49' W 122°27'2 2.4
2014-Jul-23 03:33N 37°48' W 122°24'0 0.0
2014-Jul-23 02:33N 37°48' W 122°24'0 0.0
2014-Jul-23 01:33N 37°48' W 122°24'3 3.5
2014-Jul-23 00:34N 37°48' W 122°19'3 3.5
2014-Jul-22 23:34N 37°48' W 122°24'0 0.0
2014-Jul-22 22:33N 37°48' W 122°24'3 3.0
2014-Jul-22 21:34N 37°49' W 122°20'3 2.9
2014-Jul-22 20:34N 37°48' W 122°24'0 0.0
2014-Jul-22 19:34N 37°48' W 122°24'1 1.1
2014-Jul-22 18:29N 37°49' W 122°25'1 1.3
2014-Jul-22 17:33N 37°48' W 122°24'0 0.0
2014-Jul-22 16:33N 37°48' W 122°24'0 0.0
2014-Jul-22 15:33N 37°48' W 122°24'0 0.0
2014-Jul-22 14:33N 37°48' W 122°24'4 4.3
2014-Jul-22 13:33N 37°45' W 122°21'4 4.3
2014-Jul-22 12:33N 37°48' W 122°24'0 0.0
2014-Jul-22 11:33N 37°48' W 122°24'2 2.4
2014-Jul-22 10:34N 37°47' W 122°21'2 2.3
2014-Jul-22 09:33N 37°48' W 122°24'0 0.0
2014-Jul-22 08:33N 37°48' W 122°24'0 0.0
2014-Jul-22 07:34N 37°48' W 122°24'0 0.0
2014-Jul-22 06:33N 37°48' W 122°24'3 3.4
2014-Jul-22 05:33N 37°45' W 122°21'3 3.3
2014-Jul-22 04:33N 37°48' W 122°24'0 0.0
2014-Jul-22 03:33N 37°48' W 122°24'0 0.0
2014-Jul-22 02:33N 37°48' W 122°24'0 0.1
2014-Jul-22 01:33N 37°48' W 122°24'1 1.2
2014-Jul-22 00:34N 37°49' W 122°24'1 1.3
2014-Jul-21 23:34N 37°48' W 122°23'2 2.4
2014-Jul-21 22:33N 37°49' W 122°26'2 2.1
2014-Jul-21 21:33N 37°48' W 122°24'0 0.0
2014-Jul-21 20:33N 37°48' W 122°24'0 0.0
2014-Jul-21 20:18N 37°48' W 122°24'0 0.0
2014-Jul-21 19:33N 37°48' W 122°24'5 4.9
2014-Jul-21 18:33N 37°44' W 122°20'5 4.9
2014-Jul-21 17:33N 37°48' W 122°24'0 0.0
2014-Jul-21 16:33N 37°48' W 122°24'0 0.0
2014-Jul-21 15:33N 37°48' W 122°24'1 1.3
2014-Jul-21 14:33N 37°49' W 122°25'1 1.3
2014-Jul-21 13:33N 37°48' W 122°24'0 0.0
2014-Jul-21 12:33N 37°48' W 122°24'3 2.9
2014-Jul-21 11:34N 37°49' W 122°20'3 2.9
2014-Jul-21 10:33N 37°48' W 122°24'3 2.8
2014-Jul-21 09:33N 37°46' W 122°21'1 0.9
2014-Jul-21 08:33N 37°46' W 122°20'4 3.7
2014-Jul-21 07:33N 37°48' W 122°24'0 0.0
2014-Jul-21 06:33N 37°48' W 122°24'0 0.0
2014-Jul-21 05:33N 37°48' W 122°24'0 0.0
2014-Jul-21 04:33N 37°48' W 122°24'0 0.0
2014-Jul-21 03:33N 37°48' W 122°24'0 0.0
2014-Jul-21 02:33N 37°48' W 122°24'0 0.0
2014-Jul-21 01:33N 37°48' W 122°24'3 2.8
2014-Jul-21 00:34N 37°49' W 122°20'3 2.8
2014-Jul-20 23:33N 37°48' W 122°24'0 0.0
2014-Jul-20 22:33N 37°48' W 122°24'8 8.1
2014-Jul-20 21:33N 37°47' W 122°34'8 8.1
2014-Jul-20 20:33N 37°48' W 122°24'0 0.0
2014-Jul-20 19:33N 37°48' W 122°24'0 0.0
2014-Jul-20 18:33N 37°48' W 122°24'0 0.0
2014-Jul-20 17:33N 37°48' W 122°24'0 0.0
2014-Jul-20 16:34N 37°48' W 122°24'0 0.0
2014-Jul-20 15:33N 37°48' W 122°24'0 0.0
2014-Jul-20 14:33N 37°48' W 122°24'0 0.0
2014-Jul-20 13:33N 37°48' W 122°24'0 0.0
2014-Jul-20 12:33N 37°48' W 122°24'5 4.7
2014-Jul-20 11:33N 37°48' W 122°30'6 5.8
2014-Jul-20 10:34N 37°48' W 122°22'1 1.2
2014-Jul-20 09:33N 37°48' W 122°24'0 0.0
2014-Jul-20 08:33N 37°48' W 122°24'0 0.0
2014-Jul-20 07:33N 37°48' W 122°24'2 1.6
2014-Jul-20 06:34N 37°49' W 122°25'5 5.4
2014-Jul-20 05:33N 37°48' W 122°32'6 6.4
2014-Jul-20 04:34N 37°48' W 122°24'0 0.0
2014-Jul-20 03:34N 37°48' W 122°24'0 0.0
2014-Jul-20 02:34N 37°48' W 122°24'0 0.0
2014-Jul-20 01:33N 37°48' W 122°24'0 0.0
2014-Jul-20 00:33N 37°48' W 122°24'3 2.9
2014-Jul-19 23:34N 37°49' W 122°20'9 8.6
2014-Jul-19 22:33N 37°48' W 122°31'6 5.7
2014-Jul-19 21:34N 37°48' W 122°24'0 0.0
2014-Jul-19 20:33N 37°48' W 122°24'0 0.0
2014-Jul-19 19:33N 37°48' W 122°24'0 0.0
2014-Jul-19 18:33N 37°48' W 122°24'0 0.2
2014-Jul-19 17:33N 37°48' W 122°24'0 0.2
2014-Jul-19 16:33N 37°48' W 122°24'4 1.8
2014-Jul-19 14:33N 37°49' W 122°19'2 1.6
2014-Jul-19 13:34N 37°47' W 122°20'1 0.6
2014-Jul-19 12:34N 37°48' W 122°20'3 2.9
2014-Jul-19 11:33N 37°48' W 122°24'3 3.5
2014-Jul-19 10:33N 37°49' W 122°28'1 1.1
2014-Jul-19 09:33N 37°49' W 122°29'4 4.5
2014-Jul-19 08:33N 37°48' W 122°24'0 0.0
2014-Jul-19 07:33N 37°48' W 122°24'0 0.0
2014-Jul-19 06:34N 37°48' W 122°24'0 0.0
2014-Jul-19 05:34N 37°48' W 122°24'0 0.0
2014-Jul-19 04:33N 37°48' W 122°24'0 0.0
2014-Jul-19 03:33N 37°48' W 122°24'1 1.3
2014-Jul-19 02:33N 37°48' W 122°22'3 2.7
2014-Jul-19 01:33N 37°48' W 122°19'4 3.9
2014-Jul-19 00:33N 37°48' W 122°24'1 0.5
2014-Jul-18 23:33N 37°48' W 122°23'1 0.5
2014-Jul-18 22:34N 37°48' W 122°24'0 0.0
2014-Jul-18 21:33N 37°48' W 122°24'0 0.0
2014-Jul-18 20:33N 37°48' W 122°24'0 0.0
2014-Jul-18 19:33N 37°48' W 122°24'0 0.0
2014-Jul-18 18:33N 37°48' W 122°24'0 0.0
2014-Jul-18 17:33N 37°48' W 122°24'0 0.0
2014-Jul-18 16:33N 37°48' W 122°24'2 1.8
2014-Jul-18 15:34N 37°48' W 122°21'2 1.8
2014-Jul-18 14:33N 37°48' W 122°24'0 0.0
2014-Jul-18 13:33N 37°48' W 122°24'0 0.0
2014-Jul-18 12:33N 37°48' W 122°24'0 0.0
2014-Jul-18 11:33N 37°48' W 122°24'3 3.5
2014-Jul-18 10:34N 37°46' W 122°21'2 1.7
2014-Jul-18 09:34N 37°47' W 122°21'3 2.6
2014-Jul-18 08:33N 37°48' W 122°24'3 2.9
2014-Jul-18 07:33N 37°49' W 122°20'3 2.9
2014-Jul-18 06:33N 37°48' W 122°24'0 0.0
2014-Jul-18 05:33N 37°48' W 122°24'0 0.0
2014-Jul-18 04:33N 37°48' W 122°24'0 0.0
2014-Jul-18 03:33N 37°48' W 122°24'0 0.0
2014-Jul-18 02:33N 37°48' W 122°24'0 0.2
2014-Jul-18 01:33N 37°48' W 122°24'0 0.2
2014-Jul-18 00:33N 37°48' W 122°24'0 0.0
2014-Jul-17 23:33N 37°48' W 122°24'0 0.0
2014-Jul-17 22:33N 37°48' W 122°24'0 0.0
2014-Jul-17 21:34N 37°48' W 122°24'1 0.8
2014-Jul-17 20:33N 37°49' W 122°24'1 0.9
2014-Jul-17 19:33N 37°48' W 122°24'0 0.0
2014-Jul-17 18:33N 37°48' W 122°24'0 0.0
2014-Jul-17 17:34N 37°48' W 122°24'4 4.2
2014-Jul-17 16:33N 37°45' W 122°20'4 4.3
2014-Jul-17 15:34N 37°48' W 122°24'4 4.0
2014-Jul-17 14:34N 37°48' W 122°19'9 8.5
2014-Jul-17 13:34N 37°49' W 122°29'5 4.5
2014-Jul-17 12:33N 37°48' W 122°24'0 0.0
2014-Jul-17 11:33N 37°48' W 122°24'0 0.0
2014-Jul-17 10:33N 37°48' W 122°24'9 8.9
2014-Jul-17 09:33N 37°47' W 122°35'1312.9
2014-Jul-17 08:33N 37°48' W 122°19'4 4.1
2014-Jul-17 07:34N 37°48' W 122°24'0 0.0
2014-Jul-17 06:34N 37°48' W 122°24'0 0.0
2014-Jul-17 05:34N 37°48' W 122°24'8 8.0
2014-Jul-17 04:33N 37°47' W 122°34'1110.8
2014-Jul-17 03:34N 37°46' W 122°20'3 3.3
2014-Jul-17 02:33N 37°48' W 122°24'2 1.8
2014-Jul-17 01:34N 37°47' W 122°22'2 2.2
2014-Jul-17 00:33N 37°48' W 122°19'3 3.5
2014-Jul-16 23:34N 37°48' W 122°24'7 7.4
2014-Jul-16 22:33N 37°55' W 122°22'  
Track history (hours):
 
Tides and Currents Weather Stations Pressure Air Temp Water Temp Dewpoint Dewpoint Depression Visibility Wind Speed Wind Dir Waves Ship Positions

P/v Golden Gate

More information available from US FCC via Universal Licensing System and Coast Guard Vessel Documentation Center.

Last reported at 2014-Jul-25 20:33 UTC. Time now 2014-Jul-25 20:47 UTC.
Position N 37°48' W 122°24'.

Length 23 m; draft 2 m.

Type: Pilot. MMSI: 367370010.

Date/timePositionNaut miles runAvg speedWind from/ knotsBaromVisibWave heightAir tempDewpointWater temp
2014-Jul-25 20:33N 37°48' W 122°24'0 0.0
2014-Jul-25 19:33N 37°48' W 122°24'0 0.0
2014-Jul-25 18:33N 37°48' W 122°24'0 0.0
2014-Jul-25 17:33N 37°48' W 122°24'7 7.4
2014-Jul-25 16:34N 37°48' W 122°33'1010.2
2014-Jul-25 15:34N 37°49' W 122°20'3 2.8
2014-Jul-25 14:33N 37°48' W 122°24'0 0.0
2014-Jul-25 13:33N 37°48' W 122°24'0 0.0
2014-Jul-25 12:33N 37°48' W 122°24'0 0.0
2014-Jul-25 11:34N 37°48' W 122°24'0 0.0
2014-Jul-25 10:33N 37°48' W 122°24'0 0.0
2014-Jul-25 09:33N 37°48' W 122°24'0 0.0
2014-Jul-25 08:33N 37°48' W 122°24'0 0.0
2014-Jul-25 07:33N 37°48' W 122°24'0 0.0
2014-Jul-25 06:33N 37°48' W 122°24'0 0.0
2014-Jul-25 05:33N 37°48' W 122°24'3 3.4
2014-Jul-25 04:34N 37°49' W 122°28'4 3.9
2014-Jul-25 03:33N 37°48' W 122°33'7 6.9
2014-Jul-25 02:33N 37°48' W 122°24'0 0.0
2014-Jul-25 01:34N 37°48' W 122°24'2 1.6
2014-Jul-25 00:33N 37°49' W 122°25'4 4.2
2014-Jul-24 23:33N 37°48' W 122°31'5 5.4
2014-Jul-24 22:34N 37°48' W 122°24'0 0.0
2014-Jul-24 21:34N 37°48' W 122°24'0 0.0
2014-Jul-24 20:33N 37°48' W 122°24'0 0.0
2014-Jul-24 19:34N 37°48' W 122°24'0 0.0
2014-Jul-24 18:33N 37°48' W 122°24'0 0.0
2014-Jul-24 17:34N 37°48' W 122°24'0 0.0
2014-Jul-24 16:33N 37°48' W 122°24'0 0.0
2014-Jul-24 15:33N 37°48' W 122°24'0 0.0
2014-Jul-24 14:34N 37°48' W 122°24'1 1.2
2014-Jul-24 13:32N 37°49' W 122°25'1 1.3
2014-Jul-24 12:34N 37°48' W 122°24'2 1.7
2014-Jul-24 11:33N 37°49' W 122°25'7 7.0
2014-Jul-24 10:33N 37°47' W 122°34'8 8.2
2014-Jul-24 09:33N 37°48' W 122°24'0 0.0
2014-Jul-24 08:33N 37°48' W 122°24'0 0.0
2014-Jul-24 07:33N 37°48' W 122°24'0 0.0
2014-Jul-24 06:33N 37°48' W 122°24'3 3.3
2014-Jul-24 05:33N 37°45' W 122°21'3 3.3
2014-Jul-24 04:33N 37°48' W 122°24'0 0.0
2014-Jul-24 03:33N 37°48' W 122°24'0 0.0
2014-Jul-24 02:33N 37°48' W 122°24'4 3.9
2014-Jul-24 01:34N 37°45' W 122°21'3 3.3
2014-Jul-24 00:33N 37°48' W 122°19'3 3.5
2014-Jul-23 23:33N 37°48' W 122°24'4 3.9
2014-Jul-23 22:33N 37°49' W 122°19'4 3.8
2014-Jul-23 21:33N 37°48' W 122°24'2 1.6
2014-Jul-23 20:33N 37°48' W 122°22'2 1.6
2014-Jul-23 19:33N 37°48' W 122°24'5 4.7
2014-Jul-23 18:33N 37°44' W 122°20'5 4.7
2014-Jul-23 17:33N 37°48' W 122°24'0 0.0
2014-Jul-23 16:33N 37°48' W 122°24'2 1.9
2014-Jul-23 15:33N 37°47' W 122°22'2 1.9
2014-Jul-23 14:33N 37°48' W 122°24'0 0.0
2014-Jul-23 13:33N 37°48' W 122°24'3 2.6
2014-Jul-23 12:34N 37°47' W 122°21'3 2.6
2014-Jul-23 11:34N 37°48' W 122°24'0 0.0
2014-Jul-23 10:34N 37°48' W 122°24'0 0.0
2014-Jul-23 09:34N 37°48' W 122°24'0 0.0
2014-Jul-23 08:34N 37°48' W 122°24'0 0.0
2014-Jul-23 07:34N 37°48' W 122°24'0 0.0
2014-Jul-23 06:33N 37°48' W 122°24'1 1.1
2014-Jul-23 05:34N 37°49' W 122°25'2 1.7
2014-Jul-23 04:33N 37°49' W 122°27'2 2.4
2014-Jul-23 03:33N 37°48' W 122°24'0 0.0
2014-Jul-23 02:33N 37°48' W 122°24'0 0.0
2014-Jul-23 01:33N 37°48' W 122°24'3 3.5
2014-Jul-23 00:34N 37°48' W 122°19'3 3.5
2014-Jul-22 23:34N 37°48' W 122°24'0 0.0
2014-Jul-22 22:33N 37°48' W 122°24'3 3.0
2014-Jul-22 21:34N 37°49' W 122°20'3 2.9
2014-Jul-22 20:34N 37°48' W 122°24'0 0.0
2014-Jul-22 19:34N 37°48' W 122°24'1 1.1
2014-Jul-22 18:29N 37°49' W 122°25'1 1.3
2014-Jul-22 17:33N 37°48' W 122°24'0 0.0
2014-Jul-22 16:33N 37°48' W 122°24'0 0.0
2014-Jul-22 15:33N 37°48' W 122°24'0 0.0
2014-Jul-22 14:33N 37°48' W 122°24'4 4.3
2014-Jul-22 13:33N 37°45' W 122°21'4 4.3
2014-Jul-22 12:33N 37°48' W 122°24'0 0.0
2014-Jul-22 11:33N 37°48' W 122°24'2 2.4
2014-Jul-22 10:34N 37°47' W 122°21'2 2.3
2014-Jul-22 09:33N 37°48' W 122°24'0 0.0
2014-Jul-22 08:33N 37°48' W 122°24'0 0.0
2014-Jul-22 07:34N 37°48' W 122°24'0 0.0
2014-Jul-22 06:33N 37°48' W 122°24'3 3.4
2014-Jul-22 05:33N 37°45' W 122°21'3 3.3
2014-Jul-22 04:33N 37°48' W 122°24'0 0.0
2014-Jul-22 03:33N 37°48' W 122°24'0 0.0
2014-Jul-22 02:33N 37°48' W 122°24'0 0.1
2014-Jul-22 01:33N 37°48' W 122°24'1 1.2
2014-Jul-22 00:34N 37°49' W 122°24'1 1.3
2014-Jul-21 23:34N 37°48' W 122°23'2 2.4
2014-Jul-21 22:33N 37°49' W 122°26'2 2.1
2014-Jul-21 21:33N 37°48' W 122°24'0 0.0
2014-Jul-21 20:33N 37°48' W 122°24'0 0.0
2014-Jul-21 20:18N 37°48' W 122°24'0 0.0
2014-Jul-21 19:33N 37°48' W 122°24'5 4.9
2014-Jul-21 18:33N 37°44' W 122°20'5 4.9
2014-Jul-21 17:33N 37°48' W 122°24'0 0.0
2014-Jul-21 16:33N 37°48' W 122°24'0 0.0
2014-Jul-21 15:33N 37°48' W 122°24'1 1.3
2014-Jul-21 14:33N 37°49' W 122°25'1 1.3
2014-Jul-21 13:33N 37°48' W 122°24'0 0.0
2014-Jul-21 12:33N 37°48' W 122°24'3 2.9
2014-Jul-21 11:34N 37°49' W 122°20'3 2.9
2014-Jul-21 10:33N 37°48' W 122°24'3 2.8
2014-Jul-21 09:33N 37°46' W 122°21'1 0.9
2014-Jul-21 08:33N 37°46' W 122°20'4 3.7
2014-Jul-21 07:33N 37°48' W 122°24'0 0.0
2014-Jul-21 06:33N 37°48' W 122°24'0 0.0
2014-Jul-21 05:33N 37°48' W 122°24'0 0.0
2014-Jul-21 04:33N 37°48' W 122°24'0 0.0
2014-Jul-21 03:33N 37°48' W 122°24'0 0.0
2014-Jul-21 02:33N 37°48' W 122°24'0 0.0
2014-Jul-21 01:33N 37°48' W 122°24'3 2.8
2014-Jul-21 00:34N 37°49' W 122°20'3 2.8
2014-Jul-20 23:33N 37°48' W 122°24'0 0.0
2014-Jul-20 22:33N 37°48' W 122°24'8 8.1
2014-Jul-20 21:33N 37°47' W 122°34'8 8.1
2014-Jul-20 20:33N 37°48' W 122°24'0 0.0
2014-Jul-20 19:33N 37°48' W 122°24'0 0.0
2014-Jul-20 18:33N 37°48' W 122°24'0 0.0
2014-Jul-20 17:33N 37°48' W 122°24'0 0.0
2014-Jul-20 16:34N 37°48' W 122°24'0 0.0
2014-Jul-20 15:33N 37°48' W 122°24'0 0.0
2014-Jul-20 14:33N 37°48' W 122°24'0 0.0
2014-Jul-20 13:33N 37°48' W 122°24'0 0.0
2014-Jul-20 12:33N 37°48' W 122°24'5 4.7
2014-Jul-20 11:33N 37°48' W 122°30'6 5.8
2014-Jul-20 10:34N 37°48' W 122°22'1 1.2
2014-Jul-20 09:33N 37°48' W 122°24'0 0.0
2014-Jul-20 08:33N 37°48' W 122°24'0 0.0
2014-Jul-20 07:33N 37°48' W 122°24'2 1.6
2014-Jul-20 06:34N 37°49' W 122°25'5 5.4
2014-Jul-20 05:33N 37°48' W 122°32'6 6.4
2014-Jul-20 04:34N 37°48' W 122°24'0 0.0
2014-Jul-20 03:34N 37°48' W 122°24'0 0.0
2014-Jul-20 02:34N 37°48' W 122°24'0 0.0
2014-Jul-20 01:33N 37°48' W 122°24'0 0.0
2014-Jul-20 00:33N 37°48' W 122°24'3 2.9
2014-Jul-19 23:34N 37°49' W 122°20'9 8.6
2014-Jul-19 22:33N 37°48' W 122°31'6 5.7
2014-Jul-19 21:34N 37°48' W 122°24'0 0.0
2014-Jul-19 20:33N 37°48' W 122°24'0 0.0
2014-Jul-19 19:33N 37°48' W 122°24'0 0.0
2014-Jul-19 18:33N 37°48' W 122°24'0 0.2
2014-Jul-19 17:33N 37°48' W 122°24'0 0.2
2014-Jul-19 16:33N 37°48' W 122°24'4 1.8
2014-Jul-19 14:33N 37°49' W 122°19'2 1.6
2014-Jul-19 13:34N 37°47' W 122°20'1 0.6
2014-Jul-19 12:34N 37°48' W 122°20'3 2.9
2014-Jul-19 11:33N 37°48' W 122°24'3 3.5
2014-Jul-19 10:33N 37°49' W 122°28'1 1.1
2014-Jul-19 09:33N 37°49' W 122°29'4 4.5
2014-Jul-19 08:33N 37°48' W 122°24'0 0.0
2014-Jul-19 07:33N 37°48' W 122°24'0 0.0
2014-Jul-19 06:34N 37°48' W 122°24'0 0.0
2014-Jul-19 05:34N 37°48' W 122°24'0 0.0
2014-Jul-19 04:33N 37°48' W 122°24'0 0.0
2014-Jul-19 03:33N 37°48' W 122°24'1 1.3
2014-Jul-19 02:33N 37°48' W 122°22'3 2.7
2014-Jul-19 01:33N 37°48' W 122°19'4 3.9
2014-Jul-19 00:33N 37°48' W 122°24'1 0.5
2014-Jul-18 23:33N 37°48' W 122°23'1 0.5
2014-Jul-18 22:34N 37°48' W 122°24'0 0.0
2014-Jul-18 21:33N 37°48' W 122°24'0 0.0
2014-Jul-18 20:33N 37°48' W 122°24'0 0.0
2014-Jul-18 19:33N 37°48' W 122°24'0 0.0
2014-Jul-18 18:33N 37°48' W 122°24'0 0.0
2014-Jul-18 17:33N 37°48' W 122°24'0 0.0
2014-Jul-18 16:33N 37°48' W 122°24'2 1.8
2014-Jul-18 15:34N 37°48' W 122°21'2 1.8
2014-Jul-18 14:33N 37°48' W 122°24'0 0.0
2014-Jul-18 13:33N 37°48' W 122°24'0 0.0
2014-Jul-18 12:33N 37°48' W 122°24'0 0.0
2014-Jul-18 11:33N 37°48' W 122°24'3 3.5
2014-Jul-18 10:34N 37°46' W 122°21'2 1.7
2014-Jul-18 09:34N 37°47' W 122°21'3 2.6
2014-Jul-18 08:33N 37°48' W 122°24'3 2.9
2014-Jul-18 07:33N 37°49' W 122°20'3 2.9
2014-Jul-18 06:33N 37°48' W 122°24'0 0.0
2014-Jul-18 05:33N 37°48' W 122°24'0 0.0
2014-Jul-18 04:33N 37°48' W 122°24'0 0.0
2014-Jul-18 03:33N 37°48' W 122°24'0 0.0
2014-Jul-18 02:33N 37°48' W 122°24'0 0.2
2014-Jul-18 01:33N 37°48' W 122°24'0 0.2
2014-Jul-18 00:33N 37°48' W 122°24'0 0.0
2014-Jul-17 23:33N 37°48' W 122°24'0 0.0
2014-Jul-17 22:33N 37°48' W 122°24'0 0.0
2014-Jul-17 21:34N 37°48' W 122°24'1 0.8
2014-Jul-17 20:33N 37°49' W 122°24'1 0.9
2014-Jul-17 19:33N 37°48' W 122°24'0 0.0
2014-Jul-17 18:33N 37°48' W 122°24'0 0.0
2014-Jul-17 17:34N 37°48' W 122°24'4 4.2
2014-Jul-17 16:33N 37°45' W 122°20'4 4.3
2014-Jul-17 15:34N 37°48' W 122°24'4 4.0
2014-Jul-17 14:34N 37°48' W 122°19'9 8.5
2014-Jul-17 13:34N 37°49' W 122°29'5 4.5
2014-Jul-17 12:33N 37°48' W 122°24'0 0.0
2014-Jul-17 11:33N 37°48' W 122°24'0 0.0
2014-Jul-17 10:33N 37°48' W 122°24'9 8.9
2014-Jul-17 09:33N 37°47' W 122°35'1312.9
2014-Jul-17 08:33N 37°48' W 122°19'4 4.1
2014-Jul-17 07:34N 37°48' W 122°24'0 0.0
2014-Jul-17 06:34N 37°48' W 122°24'0 0.0
2014-Jul-17 05:34N 37°48' W 122°24'8 8.0
2014-Jul-17 04:33N 37°47' W 122°34'1110.8
2014-Jul-17 03:34N 37°46' W 122°20'3 3.3
2014-Jul-17 02:33N 37°48' W 122°24'2 1.8
2014-Jul-17 01:34N 37°47' W 122°22'2 2.2
2014-Jul-17 00:33N 37°48' W 122°19'3 3.5
2014-Jul-16 23:34N 37°48' W 122°24'7 7.4
2014-Jul-16 22:33N 37°55' W 122°22'  

Dump ship's entire track history